Time;durP1;ratioP1;P1;durP2;ratioP2;P2;SDS_P1;SDS_P2;PMS_P1;PMS_P2;Temp;Humidity;BMP_temperature;BMP_pressure;BME280_temperature;BME280_humidity;BME280_pressure;Samples;Min_cycle;Max_cycle;Signal;HPM_P1;HPM_P2
2024/04/08 00:00:32;;;;;;;5.28;2.08;;;;;;;17.10;100.00;96893.69;5038097;28;20401;-82
2024/04/08 00:02:59;;;;;;;10.93;2.50;;;;;;;16.99;100.00;96890.47;5038533;28;20860;-80
2024/04/08 00:05:26;;;;;;;6.97;1.83;;;;;;;16.98;100.00;96896.94;5037906;28;20434;-80
2024/04/08 00:07:54;;;;;;;8.23;1.98;;;;;;;16.94;100.00;96893.28;5038220;28;20391;-80
2024/04/08 00:10:20;;;;;;;10.02;2.47;;;;;;;16.87;100.00;96894.78;5037879;28;20453;-80
2024/04/08 00:12:47;;;;;;;7.22;2.08;;;;;;;16.82;100.00;96897.59;5037625;28;20411;-81
2024/04/08 00:15:14;;;;;;;6.25;1.90;;;;;;;16.76;100.00;96896.91;5037779;28;20403;-82
2024/04/08 00:17:41;;;;;;;9.63;2.70;;;;;;;16.73;100.00;96891.38;5037799;28;20410;-81
2024/04/08 00:20:09;;;;;;;8.67;2.17;;;;;;;16.72;100.00;96889.78;5037993;28;20443;-80
2024/04/08 00:22:35;;;;;;;11.18;2.53;;;;;;;16.62;100.00;96885.47;5037536;28;20446;-82
2024/04/08 00:25:03;;;;;;;10.25;2.60;;;;;;;16.51;100.00;96879.53;5037009;28;20487;-81
2024/04/08 00:27:30;;;;;;;4.72;1.88;;;;;;;16.49;100.00;96879.03;5037177;28;20445;-80
2024/04/08 00:29:56;;;;;;;9.23;2.42;;;;;;;16.52;100.00;96885.69;5037440;28;20410;-80
2024/04/08 00:32:22;;;;;;;9.25;2.83;;;;;;;16.40;100.00;96877.38;5037077;28;20469;-81
2024/04/08 00:34:48;;;;;;;8.18;2.50;;;;;;;16.33;100.00;96872.44;5038002;28;20394;-80
2024/04/08 00:37:15;;;;;;;6.55;2.47;;;;;;;16.35;100.00;96875.63;5036898;28;20454;-80
2024/04/08 00:39:41;;;;;;;10.13;2.25;;;;;;;16.32;100.00;96883.41;5036882;28;20406;-81
2024/04/08 00:42:08;;;;;;;6.63;2.17;;;;;;;16.27;100.00;96897.69;5037340;28;20478;-82
2024/04/08 00:44:34;;;;;;;5.95;2.20;;;;;;;16.23;100.00;96896.72;5037081;28;20442;-81
2024/04/08 00:47:00;;;;;;;7.25;2.20;;;;;;;16.05;100.00;96878.91;5036136;28;20435;-81
2024/04/08 00:49:29;;;;;;;12.50;2.40;;;;;;;16.12;100.00;96877.44;5036365;28;20391;-81
2024/04/08 00:51:57;;;;;;;11.40;2.47;;;;;;;16.08;100.00;96865.00;5020757;28;20439;-81
2024/04/08 00:54:24;;;;;;;11.07;2.13;;;;;;;16.14;100.00;96863.78;5016757;28;20489;-81
2024/04/08 00:56:51;;;;;;;8.60;2.75;;;;;;;16.21;100.00;96870.31;5018455;28;20405;-82
2024/04/08 00:59:19;;;;;;;12.80;2.47;;;;;;;16.19;100.00;96872.47;5017172;28;20417;-81
2024/04/08 01:01:46;;;;;;;17.55;2.80;;;;;;;16.20;100.00;96873.25;5015716;28;20444;-80
2024/04/08 01:04:12;;;;;;;9.40;2.33;;;;;;;16.24;100.00;96885.72;5015271;28;20436;-81
2024/04/08 01:06:38;;;;;;;14.25;3.20;;;;;;;16.17;100.00;96881.88;5014532;28;20508;-82
2024/04/08 01:09:05;;;;;;;8.82;2.80;;;;;;;16.11;100.00;96872.38;5014292;28;20793;-82
2024/04/08 01:11:32;;;;;;;9.93;3.15;;;;;;;16.14;100.00;96869.13;5014029;28;20401;-81
2024/04/08 01:13:58;;;;;;;8.20;2.30;;;;;;;16.15;100.00;96871.50;5019084;28;20896;-81
2024/04/08 01:16:26;;;;;;;7.80;2.10;;;;;;;16.18;100.00;96872.75;5015506;28;20405;-82
2024/04/08 01:18:52;;;;;;;4.35;1.77;;;;;;;16.15;100.00;96868.84;5015355;28;20401;-81
2024/04/08 01:21:18;;;;;;;4.97;2.00;;;;;;;16.15;100.00;96863.50;5015515;28;20403;-81
2024/04/08 01:23:46;;;;;;;5.70;1.90;;;;;;;16.14;100.00;96859.25;5015727;28;20397;-81
2024/04/08 01:26:12;;;;;;;6.53;2.30;;;;;;;16.18;100.00;96854.06;5015278;28;20392;-82
2024/04/08 01:28:39;;;;;;;6.93;2.22;;;;;;;16.18;100.00;96852.19;5016081;28;20786;-81
2024/04/08 01:31:05;;;;;;;6.80;2.00;;;;;;;16.13;100.00;96852.31;5016094;28;20393;-82
2024/04/08 01:33:32;;;;;;;4.97;2.00;;;;;;;16.11;100.00;96851.81;5015532;28;20420;-82
2024/04/08 01:36:00;;;;;;;6.57;2.20;;;;;;;16.17;100.00;96855.94;5015441;28;20551;-82
2024/04/08 01:38:26;;;;;;;9.80;2.47;;;;;;;16.16;100.00;96853.59;5016178;28;20396;-81
2024/04/08 01:40:54;;;;;;;9.07;2.20;;;;;;;16.15;100.00;96849.34;5015870;28;20468;-82
2024/04/08 01:43:21;;;;;;;9.50;1.98;;;;;;;16.10;100.00;96858.25;5016194;28;20488;-81
2024/04/08 01:45:47;;;;;;;15.90;2.60;;;;;;;16.12;100.00;96850.72;5015816;28;20424;-81
2024/04/08 01:48:13;;;;;;;7.75;1.88;;;;;;;16.08;100.00;96859.66;5016040;28;20460;-81
2024/04/08 01:50:39;;;;;;;7.10;2.30;;;;;;;16.09;100.00;96853.19;5014691;28;20504;-82
2024/04/08 01:53:05;;;;;;;10.17;2.40;;;;;;;15.92;100.00;96837.00;5015391;28;20421;-82
2024/04/08 01:55:31;;;;;;;13.95;3.08;;;;;;;15.99;100.00;96834.72;5015001;28;20469;-83
2024/04/08 01:57:59;;;;;;;13.63;2.80;;;;;;;15.89;100.00;96827.72;5016243;28;20401;-81
2024/04/08 02:00:25;;;;;;;9.35;2.10;;;;;;;15.87;100.00;96835.22;5016567;28;20401;-82
2024/04/08 02:02:51;;;;;;;9.23;2.40;;;;;;;15.90;100.00;96826.63;5016217;28;20475;-82
2024/04/08 02:05:18;;;;;;;4.93;1.80;;;;;;;15.91;100.00;96825.56;5017185;28;20419;-81
2024/04/08 02:07:45;;;;;;;6.25;2.20;;;;;;;15.86;100.00;96833.66;5021003;28;20428;-81
2024/04/08 02:10:11;;;;;;;4.22;2.22;;;;;;;15.83;100.00;96836.91;5015951;28;20440;-83
2024/04/08 02:12:38;;;;;;;7.07;1.92;;;;;;;15.84;100.00;96844.63;5015462;28;20901;-82
2024/04/08 02:15:06;;;;;;;5.85;2.17;;;;;;;15.81;100.00;96844.44;5015892;28;20914;-83
2024/04/08 02:17:32;;;;;;;12.52;2.95;;;;;;;15.75;100.00;96834.94;5015507;28;20405;-83
2024/04/08 02:19:58;;;;;;;7.27;2.17;;;;;;;15.74;100.00;96849.38;5015719;28;20401;-84
2024/04/08 02:22:24;;;;;;;11.68;2.80;;;;;;;15.76;100.00;96853.34;5018450;28;20416;-83
2024/04/08 02:24:51;;;;;;;6.80;3.03;;;;;;;15.66;100.00;96860.72;5018472;28;20400;-81
2024/04/08 02:27:17;;;;;;;3.60;2.00;;;;;;;15.64;100.00;96866.34;5017054;28;20400;-81
2024/04/08 02:29:43;;;;;;;5.78;2.20;;;;;;;15.64;100.00;96879.69;5015791;28;20400;-83
2024/04/08 02:32:11;;;;;;;12.10;2.67;;;;;;;15.70;100.00;96881.22;5015227;28;20412;-83
2024/04/08 02:34:37;;;;;;;12.40;2.72;;;;;;;15.56;100.00;96853.72;5015700;28;20882;-82
2024/04/08 02:37:03;;;;;;;12.02;3.13;;;;;;;15.57;100.00;96860.63;5015814;28;20403;-83
2024/04/08 02:39:30;;;;;;;7.68;2.50;;;;;;;15.56;100.00;96861.75;5017074;28;20393;-83
2024/04/08 02:41:56;;;;;;;10.57;3.05;;;;;;;15.52;100.00;96860.69;5016261;28;20454;-83
2024/04/08 02:44:22;;;;;;;8.57;2.35;;;;;;;15.44;100.00;96866.72;5016791;28;20549;-83
2024/04/08 02:46:48;;;;;;;13.07;3.00;;;;;;;15.36;100.00;96865.50;5016946;28;20475;-81
2024/04/08 02:49:15;;;;;;;9.18;2.45;;;;;;;15.38;100.00;96865.22;5017694;28;20415;-83
2024/04/08 02:51:42;;;;;;;12.00;2.65;;;;;;;15.30;100.00;96865.91;5018579;28;20397;-83
2024/04/08 02:54:08;;;;;;;4.78;1.77;;;;;;;15.20;100.00;96866.84;5029037;28;20415;-82
2024/04/08 02:56:35;;;;;;;4.75;2.25;;;;;;;15.18;100.00;96868.25;5037151;28;20419;-82
2024/04/08 02:59:01;;;;;;;10.27;2.45;;;;;;;15.12;100.00;96878.19;5036972;28;20405;-83
2024/04/08 03:01:28;;;;;;;7.80;2.50;;;;;;;15.04;100.00;96873.53;5016525;28;20475;-83
2024/04/08 03:03:54;;;;;;;9.70;2.60;;;;;;;15.06;100.00;96872.16;5021796;28;20418;-83
2024/04/08 03:06:22;;;;;;;8.13;2.50;;;;;;;14.99;100.00;96870.97;5022369;28;20408;-81
2024/04/08 03:08:49;;;;;;;9.75;2.90;;;;;;;14.91;100.00;96869.75;5022268;28;20401;-83
2024/04/08 03:11:15;;;;;;;9.65;2.55;;;;;;;14.82;100.00;96860.03;5026032;28;20448;-82
2024/04/08 03:13:41;;;;;;;13.13;3.13;;;;;;;14.77;100.00;96862.78;5019770;28;20466;-81
2024/04/08 03:16:07;;;;;;;6.85;2.47;;;;;;;14.70;100.00;96871.94;5029814;28;20404;-81
2024/04/08 03:18:34;;;;;;;13.23;3.22;;;;;;;14.63;100.00;96874.19;5037859;28;20483;-83
2024/04/08 03:21:02;;;;;;;8.50;2.70;;;;;;;14.66;100.00;96881.56;5019219;28;20412;-81
2024/04/08 03:23:30;;;;;;;8.30;2.30;;;;;;;14.61;100.00;96878.19;5018897;28;20532;-81
2024/04/08 03:25:57;;;;;;;15.48;2.75;;;;;;;14.56;100.00;96887.06;5018616;28;20412;-81
2024/04/08 03:28:23;;;;;;;9.57;2.70;;;;;;;14.55;100.00;96882.03;5023879;28;20400;-83
2024/04/08 03:30:50;;;;;;;10.00;3.15;;;;;;;14.55;100.00;96884.69;5020581;28;20401;-81
2024/04/08 03:33:19;;;;;;;6.07;2.78;;;;;;;14.46;100.00;96886.41;5020529;28;20499;-82
2024/04/08 03:35:45;;;;;;;7.72;2.55;;;;;;;14.35;100.00;96875.09;5020444;28;20416;-83
2024/04/08 03:38:11;;;;;;;10.13;2.83;;;;;;;14.39;100.00;96885.97;5020293;28;20477;-81
2024/04/08 03:40:38;;;;;;;7.53;2.63;;;;;;;14.30;100.00;96894.56;5020481;28;20401;-83
2024/04/08 03:43:05;;;;;;;8.90;2.30;;;;;;;14.30;100.00;96902.56;5030552;28;20436;-81
2024/04/08 03:45:31;;;;;;;10.90;3.37;;;;;;;14.26;100.00;96892.78;5026163;28;20475;-81
2024/04/08 03:47:58;;;;;;;13.73;2.42;;;;;;;14.30;100.00;96899.91;5029551;28;20447;-83
2024/04/08 03:50:27;;;;;;;6.05;2.17;;;;;;;14.27;100.00;96905.00;5022585;28;20403;-83
2024/04/08 03:52:53;;;;;;;7.35;2.42;;;;;;;14.26;100.00;96914.06;5002259;28;20493;-83
2024/04/08 03:55:23;;;;;;;5.63;2.40;;;;;;;14.23;100.00;96917.28;5002401;28;20461;-79
2024/04/08 03:57:50;;;;;;;6.55;2.70;;;;;;;14.22;100.00;96918.38;5023862;28;20430;-80
2024/04/08 04:00:17;;;;;;;19.52;3.30;;;;;;;14.22;100.00;96913.84;5033234;28;20460;-79
2024/04/08 04:02:43;;;;;;;8.77;2.60;;;;;;;14.18;100.00;96910.19;5030967;28;20420;-80
2024/04/08 04:05:09;;;;;;;13.02;3.22;;;;;;;14.10;100.00;96916.13;5030786;28;20402;-80
2024/04/08 04:07:35;;;;;;;9.55;2.80;;;;;;;13.99;100.00;96912.00;5032828;28;20403;-82
2024/04/08 04:10:04;;;;;;;5.82;2.05;;;;;;;13.97;100.00;96916.03;5024010;28;20418;-82
2024/04/08 04:12:33;;;;;;;5.65;1.98;;;;;;;13.99;100.00;96914.66;5040696;28;20521;-81
2024/04/08 04:15:00;;;;;;;8.82;2.53;;;;;;;13.98;100.00;96923.75;5037914;28;20417;-80
2024/04/08 04:17:27;;;;;;;9.40;2.72;;;;;;;13.97;100.00;96921.34;5040791;28;20498;-82
2024/04/08 04:19:53;;;;;;;6.90;2.67;;;;;;;13.92;100.00;96914.19;5038972;28;20398;-83
2024/04/08 04:22:19;;;;;;;10.27;2.95;;;;;;;13.95;100.00;96917.09;5037435;28;20888;-81
2024/04/08 04:24:45;;;;;;;5.93;2.15;;;;;;;13.84;100.00;96922.81;5034176;28;20395;-82
2024/04/08 04:27:11;;;;;;;8.55;2.55;;;;;;;13.75;100.00;96916.53;5037890;28;20399;-82
2024/04/08 04:29:38;;;;;;;12.57;2.80;;;;;;;13.67;100.00;96917.94;5039348;28;20415;-83
2024/04/08 04:32:05;;;;;;;5.90;2.42;;;;;;;13.62;100.00;96914.53;5054585;28;20419;-83
2024/04/08 04:34:32;;;;;;;8.02;2.50;;;;;;;13.68;100.00;96926.72;5050732;28;20403;-83
2024/04/08 04:36:58;;;;;;;10.98;2.72;;;;;;;13.68;100.00;96916.84;5034162;28;20423;-81
2024/04/08 04:39:24;;;;;;;9.10;2.80;;;;;;;13.68;100.00;96913.44;5040177;28;20796;-81
2024/04/08 04:41:50;;;;;;;12.10;3.08;;;;;;;13.62;100.00;96917.19;5039911;28;20399;-78
2024/04/08 04:44:17;;;;;;;9.73;2.90;;;;;;;13.58;100.00;96911.66;5027594;28;20476;-82
2024/04/08 04:46:43;;;;;;;5.50;2.23;;;;;;;13.62;100.00;96906.53;5021348;28;21108;-81
2024/04/08 04:49:11;;;;;;;9.77;2.70;;;;;;;13.68;100.00;96902.78;5025324;28;20456;-79
2024/04/08 04:51:37;;;;;;;10.15;2.70;;;;;;;13.68;100.00;96902.78;5035039;28;20406;-80
2024/04/08 04:54:04;;;;;;;10.30;2.38;;;;;;;13.73;100.00;96902.72;5033627;28;20391;-82
2024/04/08 04:56:30;;;;;;;5.15;2.40;;;;;;;13.74;100.00;96910.44;5027898;28;20415;-80
2024/04/08 04:58:57;;;;;;;8.70;3.47;;;;;;;13.81;100.00;96907.44;5015128;28;20416;-82
2024/04/08 05:01:23;;;;;;;12.20;3.30;;;;;;;13.78;100.00;96913.28;5016410;28;20507;-81
2024/04/08 05:03:49;;;;;;;7.20;2.55;;;;;;;13.77;100.00;96915.16;5016587;28;20454;-82
2024/04/08 05:06:16;;;;;;;6.80;2.63;;;;;;;13.77;100.00;96922.34;5015630;28;20401;-80
2024/04/08 05:08:43;;;;;;;4.72;2.60;;;;;;;13.80;100.00;96925.25;5024163;28;20406;-82
2024/04/08 05:11:09;;;;;;;10.32;3.13;;;;;;;13.82;100.00;96947.06;5037552;28;20400;-82
2024/04/08 05:13:36;;;;;;;14.20;3.38;;;;;;;13.83;100.00;96950.50;5034330;28;20435;-82
2024/04/08 05:16:05;;;;;;;12.18;3.60;;;;;;;13.77;100.00;96946.28;5024377;28;20790;-79
2024/04/08 05:18:32;;;;;;;9.63;2.80;;;;;;;13.75;100.00;96945.81;5035445;28;20459;-81
2024/04/08 05:20:59;;;;;;;5.10;2.20;;;;;;;13.73;100.00;96950.59;5035817;28;20399;-81
2024/04/08 05:23:27;;;;;;;4.57;2.30;;;;;;;13.71;100.00;96953.53;5038253;28;20444;-82
2024/04/08 05:25:53;;;;;;;9.95;2.88;;;;;;;13.75;100.00;96954.56;5036191;28;20399;-81
2024/04/08 05:28:20;;;;;;;12.38;3.70;;;;;;;13.73;100.00;96963.91;5037938;28;20399;-82
2024/04/08 05:30:46;;;;;;;15.30;3.63;;;;;;;13.71;100.00;96963.38;5040627;28;20429;-82
2024/04/08 05:33:12;;;;;;;7.40;2.72;;;;;;;13.74;100.00;96962.84;5043299;28;20426;-80
2024/04/08 05:35:46;;;;;;;8.27;2.87;;;;;;;13.77;100.00;96949.75;5049909;28;20474;-81
2024/04/08 05:38:13;;;;;;;8.43;3.35;;;;;;;13.71;100.00;96950.09;5040486;28;20466;-80
2024/04/08 05:40:41;;;;;;;5.07;2.50;;;;;;;13.70;100.00;96946.63;5042520;28;20737;-83
2024/04/08 05:43:09;;;;;;;12.60;2.88;;;;;;;13.67;100.00;96947.22;5042295;28;20745;-82
2024/04/08 05:45:36;;;;;;;13.98;3.58;;;;;;;13.66;100.00;96942.16;5054731;28;20416;-81
2024/04/08 05:48:04;;;;;;;5.70;2.70;;;;;;;13.74;100.00;96947.66;5046929;28;20394;-83
2024/04/08 05:50:30;;;;;;;7.63;2.88;;;;;;;13.79;100.00;96952.94;5041441;28;20395;-82
2024/04/08 05:52:56;;;;;;;6.95;2.83;;;;;;;13.88;100.00;96956.56;5041545;28;20423;-82
2024/04/08 05:55:22;;;;;;;10.60;3.10;;;;;;;13.93;100.00;96950.38;5039668;28;20445;-81
2024/04/08 05:57:50;;;;;;;5.68;2.20;;;;;;;14.01;100.00;96940.97;5041592;28;20878;-83
2024/04/08 06:00:18;;;;;;;3.50;2.00;;;;;;;14.09;100.00;96946.47;5039168;28;20963;-83
2024/04/08 06:02:49;;;;;;;4.25;2.03;;;;;;;14.18;100.00;96939.47;5040200;28;20394;-83
2024/04/08 06:05:18;;;;;;;12.93;2.75;;;;;;;14.24;100.00;96934.84;5037158;28;20409;-83
2024/04/08 06:07:48;;;;;;;4.78;2.15;;;;;;;14.32;100.00;96942.22;5036351;28;20456;-83
2024/04/08 06:10:15;;;;;;;3.85;2.05;;;;;;;14.37;100.00;96941.34;5036676;28;20395;-82
2024/04/08 06:12:41;;;;;;;8.18;2.20;;;;;;;14.41;100.00;96940.53;5031990;28;20427;-81
2024/04/08 06:15:09;;;;;;;4.15;1.95;;;;;;;14.47;100.00;96936.72;5021095;28;20400;-81
2024/04/08 06:17:35;;;;;;;8.83;2.80;;;;;;;14.52;100.00;96944.63;5024264;28;20395;-80
2024/04/08 06:20:02;;;;;;;12.35;3.60;;;;;;;14.48;100.00;96932.19;5027600;28;20885;-82
2024/04/08 06:22:29;;;;;;;8.73;3.00;;;;;;;14.57;100.00;96939.25;5023857;28;20411;-82
2024/04/08 06:24:55;;;;;;;7.22;2.47;;;;;;;14.65;100.00;96935.97;5034808;28;20404;-83
2024/04/08 06:27:45;;;;;;;17.17;2.97;;;;;;;14.69;100.00;96936.94;5031670;28;20399;-80
2024/04/08 06:30:44;;;;;;;11.93;3.08;;;;;;;14.80;100.00;96937.63;5020333;28;20426;-81
2024/04/08 06:33:35;;;;;;;9.35;2.25;;;;;;;14.89;100.00;96940.41;5032340;28;20407;-81
2024/04/08 06:36:02;;;;;;;7.75;2.58;;;;;;;14.97;100.00;96943.19;5037759;28;20429;-80
2024/04/08 06:41:09;;;;;;;4.00;2.00;;;;;;;15.14;100.00;96936.56;5372539;22;20405;-83
2024/04/08 06:43:36;;;;;;;4.70;2.13;;;;;;;15.26;100.00;96947.59;5064242;28;20406;-82
2024/04/08 06:46:02;;;;;;;6.10;1.80;;;;;;;15.36;100.00;96947.41;5045916;28;20403;-83
2024/04/08 06:48:29;;;;;;;3.17;1.60;;;;;;;15.45;100.00;96933.09;5044156;28;20398;-82
2024/04/08 06:50:57;;;;;;;2.75;1.88;;;;;;;15.54;100.00;96935.94;5044870;28;20438;-83
2024/04/08 06:53:23;;;;;;;2.97;1.77;;;;;;;15.60;100.00;96942.75;5040053;28;20476;-82
2024/04/08 06:55:50;;;;;;;2.75;1.50;;;;;;;15.69;100.00;96935.66;5051600;28;20397;-83
2024/04/08 06:58:19;;;;;;;4.28;1.73;;;;;;;15.77;100.00;96940.31;5046342;28;20423;-82
2024/04/08 07:00:46;;;;;;;5.13;1.90;;;;;;;15.83;100.00;96936.47;5040669;28;20395;-83
2024/04/08 07:03:12;;;;;;;10.70;2.90;;;;;;;15.97;100.00;96925.78;5053353;28;20419;-83
2024/04/08 07:05:40;;;;;;;8.10;3.10;;;;;;;16.05;100.00;96922.44;5051101;28;21148;-83
2024/04/08 07:08:06;;;;;;;6.38;2.05;;;;;;;16.16;100.00;96931.03;5048196;28;20389;-83
2024/04/08 07:10:33;;;;;;;8.25;2.22;;;;;;;16.26;100.00;96923.59;5043624;28;20405;-83
2024/04/08 07:13:00;;;;;;;6.20;2.50;;;;;;;16.28;100.00;96899.28;5050224;28;20415;-83
2024/04/08 07:15:26;;;;;;;8.00;2.30;;;;;;;16.49;100.00;96904.97;5036500;28;20422;-82
2024/04/08 07:17:52;;;;;;;9.40;2.58;;;;;;;16.57;100.00;96883.66;5051532;28;20403;-83
2024/04/08 07:20:19;;;;;;;7.45;2.13;;;;;;;16.66;100.00;96886.44;5055659;28;20429;-82
2024/04/08 07:22:47;;;;;;;7.68;2.25;;;;;;;16.74;100.00;96880.38;5055944;28;20397;-82
2024/04/08 07:25:13;;;;;;;3.63;1.60;;;;;;;16.90;100.00;96878.94;5055784;28;20839;-81
2024/04/08 07:27:39;;;;;;;10.85;2.47;;;;;;;17.07;100.00;96875.56;5058824;28;20484;-83
2024/04/08 07:30:06;;;;;;;4.57;2.08;;;;;;;17.17;100.00;96880.69;5059212;28;20393;-81
2024/04/08 07:32:33;;;;;;;4.80;1.43;;;;;;;17.28;100.00;96882.03;5056829;28;20473;-80
2024/04/08 07:34:59;;;;;;;10.75;2.03;;;;;;;17.42;100.00;96880.06;5055121;28;20397;-81
2024/04/08 07:37:26;;;;;;;16.17;3.10;;;;;;;17.55;100.00;96869.56;5055325;28;20393;-82
2024/04/08 07:39:53;;;;;;;7.93;2.00;;;;;;;17.63;100.00;96864.28;5054656;28;20492;-81
2024/04/08 07:43:30;;;;;;;16.73;2.65;;;;;;;17.79;100.00;96872.69;5583650;25;20427;-81
2024/04/08 07:45:57;;;;;;;10.95;2.20;;;;;;;18.04;100.00;96871.97;5546155;25;20657;-81
2024/04/08 07:48:23;;;;;;;5.68;2.15;;;;;;;18.27;100.00;96869.97;5550694;25;20315;-82
2024/04/08 07:50:50;;;;;;;22.58;3.78;;;;;;;18.37;100.00;96864.31;5551573;25;20407;-82
2024/04/08 07:53:16;;;;;;;8.75;2.20;;;;;;;18.35;100.00;96865.72;5550059;25;20319;-82
2024/04/08 07:55:43;;;;;;;6.43;1.85;;;;;;;18.54;100.00;96858.19;5548177;25;20323;-82
2024/04/08 07:58:09;;;;;;;11.73;2.97;;;;;;;18.59;100.00;96863.41;5548148;25;20349;-83
2024/04/08 08:00:38;;;;;;;13.55;2.58;;;;;;;18.84;100.00;96864.53;5549695;25;20323;-83
2024/04/08 08:03:05;;;;;;;10.40;2.35;;;;;;;18.98;100.00;96867.84;5555784;25;20327;-83
2024/04/08 08:05:31;;;;;;;10.68;2.30;;;;;;;19.11;100.00;96869.53;5555067;25;20742;-82
2024/04/08 08:07:59;;;;;;;12.63;2.58;;;;;;;19.14;100.00;96873.50;5552766;25;20345;-83
2024/04/08 08:10:26;;;;;;;9.47;1.90;;;;;;;19.29;100.00;96867.63;5553031;25;20697;-83
2024/04/08 08:12:52;;;;;;;9.70;2.45;;;;;;;19.41;100.00;96866.94;5553194;25;20323;-82
2024/04/08 08:15:18;;;;;;;13.60;2.35;;;;;;;19.59;100.00;96872.00;5552298;25;20355;-82
2024/04/08 08:17:49;;;;;;;9.37;2.03;;;;;;;19.55;100.00;96868.34;5551401;25;20335;-82
2024/04/08 08:20:16;;;;;;;12.07;2.28;;;;;;;19.61;100.00;96864.41;5548424;25;20331;-82
2024/04/08 08:22:45;;;;;;;9.98;2.08;;;;;;;19.68;100.00;96864.69;5550776;25;20319;-82
2024/04/08 08:25:11;;;;;;;9.07;2.13;;;;;;;19.81;100.00;96867.47;5551121;25;20312;-84
2024/04/08 08:27:37;;;;;;;10.50;2.38;;;;;;;19.80;100.00;96860.53;5556067;25;20323;-82
2024/04/08 08:30:04;;;;;;;12.47;2.00;;;;;;;20.03;100.00;96870.69;5557720;25;20403;-82
2024/04/08 08:32:30;;;;;;;15.90;2.50;;;;;;;20.22;100.00;96866.81;5547839;25;20315;-82
2024/04/08 08:34:59;;;;;;;11.98;1.88;;;;;;;20.47;100.00;96868.56;5553032;25;20334;-82
2024/04/08 08:37:25;;;;;;;15.52;2.35;;;;;;;20.73;100.00;96866.47;5555191;25;20360;-81
2024/04/08 08:39:51;;;;;;;9.90;1.83;;;;;;;20.83;100.00;96857.19;5554855;25;20323;-82
2024/04/08 08:42:21;;;;;;;8.40;2.50;;;;;;;20.85;100.00;96861.13;5557468;25;20366;-83
2024/04/08 08:44:53;;;;;;;3.75;1.23;;;;;;;20.94;100.00;96854.91;5555212;25;20367;-81
2024/04/08 08:47:22;;;;;;;14.88;2.55;;;;;;;20.98;100.00;96851.19;5556416;25;20323;-83
2024/04/08 08:49:51;;;;;;;8.23;1.50;;;;;;;21.28;100.00;96851.09;5556224;25;20311;-82
2024/04/08 08:52:21;;;;;;;4.20;1.60;;;;;;;21.47;100.00;96849.47;5550703;25;20348;-79
2024/04/08 08:54:50;;;;;;;7.95;2.00;;;;;;;21.60;100.00;96844.88;5533319;25;20312;-83
2024/04/08 08:57:16;;;;;;;8.10;1.70;;;;;;;21.88;100.00;96835.00;5535791;26;20359;-81
2024/04/08 08:59:44;;;;;;;12.45;2.10;;;;;;;21.83;100.00;96837.16;5538802;26;20316;-81
2024/04/08 09:02:12;;;;;;;6.27;1.63;;;;;;;22.11;100.00;96840.75;5527174;26;20348;-81
2024/04/08 09:04:39;;;;;;;18.67;2.88;;;;;;;22.21;100.00;96839.53;5527071;26;20404;-81
2024/04/08 09:07:06;;;;;;;7.50;1.90;;;;;;;22.38;100.00;96836.59;5527372;26;20316;-82
2024/04/08 09:09:35;;;;;;;7.82;1.90;;;;;;;22.60;100.00;96835.28;5528587;26;20334;-82
2024/04/08 09:12:01;;;;;;;8.20;1.83;;;;;;;22.85;100.00;96822.53;5501270;26;20453;-82
2024/04/08 09:14:30;;;;;;;10.50;1.90;;;;;;;22.99;100.00;96826.41;5500096;26;20322;-82
2024/04/08 09:17:05;;;;;;;8.13;2.07;;;;;;;23.38;100.00;96822.00;5497800;26;20371;-82
2024/04/08 09:19:31;;;;;;;8.60;1.65;;;;;;;23.77;100.00;96824.91;5495280;26;20323;-81
2024/04/08 09:21:58;;;;;;;10.73;1.93;;;;;;;23.85;98.65;96823.97;5495254;26;20346;-81
2024/04/08 09:24:24;;;;;;;5.32;1.80;;;;;;;24.14;100.00;96828.88;5494870;26;20326;-81
2024/04/08 09:26:54;;;;;;;9.20;1.73;;;;;;;24.41;100.00;96829.13;5494123;26;20350;-81
2024/04/08 09:29:20;;;;;;;5.68;1.50;;;;;;;24.65;100.00;96821.53;5492887;26;20314;-81
2024/04/08 09:31:47;;;;;;;9.07;1.95;;;;;;;25.17;100.00;96822.16;5493183;26;20322;-80
2024/04/08 09:34:14;;;;;;;12.75;2.22;;;;;;;25.02;100.00;96815.69;5492356;26;20322;-82
2024/04/08 09:36:41;;;;;;;3.83;1.48;;;;;;;25.03;100.00;96811.84;5492747;26;20371;-82
2024/04/08 09:39:09;;;;;;;5.85;1.80;;;;;;;25.25;100.00;96818.44;5493500;26;20371;-82
2024/04/08 09:41:37;;;;;;;18.40;2.65;;;;;;;25.00;91.24;96815.25;5495409;26;20330;-82
2024/04/08 09:44:09;;;;;;;8.63;1.83;;;;;;;25.31;100.00;96814.28;5495715;26;20318;-81
2024/04/08 09:46:36;;;;;;;3.47;1.30;;;;;;;25.47;100.00;96820.38;5495639;26;20306;-81
2024/04/08 09:49:03;;;;;;;4.72;1.10;;;;;;;25.83;100.00;96814.41;5496240;26;20326;-81
2024/04/08 09:51:30;;;;;;;7.55;1.50;;;;;;;26.18;100.00;96816.09;5495804;26;20367;-81
2024/04/08 09:53:57;;;;;;;20.20;2.20;;;;;;;25.90;99.49;96811.03;5522415;26;20413;-82
2024/04/08 09:56:25;;;;;;;14.55;2.30;;;;;;;25.94;92.87;96806.44;5534522;26;20407;-83
2024/04/08 09:59:02;;;;;;;7.22;1.45;;;;;;;26.20;100.00;96803.72;5538070;26;20371;-83
2024/04/08 10:01:31;;;;;;;14.50;2.40;;;;;;;26.08;93.50;96801.25;5534281;25;20315;-84
2024/04/08 10:04:02;;;;;;;4.82;1.70;;;;;;;26.43;100.00;96800.19;5533995;26;20324;-80
2024/04/08 10:06:29;;;;;;;12.40;2.30;;;;;;;26.45;95.28;96797.91;5530396;26;20339;-80
2024/04/08 10:08:57;;;;;;;6.38;1.85;;;;;;;26.80;100.00;96794.81;5517243;26;20382;-78
2024/04/08 10:11:23;;;;;;;13.15;1.80;;;;;;;26.73;96.79;96797.44;5490047;26;20509;-77
2024/04/08 10:13:50;;;;;;;8.07;1.83;;;;;;;26.68;90.06;96793.16;5504879;26;20373;-79
2024/04/08 10:16:18;;;;;;;9.32;1.80;;;;;;;26.85;100.00;96791.75;5499877;26;20323;-77
2024/04/08 10:18:51;;;;;;;11.05;1.90;;;;;;;26.67;85.74;96793.50;5496378;26;20737;-79
2024/04/08 10:21:18;;;;;;;8.20;2.08;;;;;;;27.53;85.05;96791.34;5502747;26;20327;-77
2024/04/08 10:23:45;;;;;;;11.57;2.05;;;;;;;26.91;83.43;96798.47;5501764;26;20392;-78
2024/04/08 10:26:13;;;;;;;8.40;1.60;;;;;;;27.11;98.21;96790.91;5500796;26;20342;-77
2024/04/08 10:28:40;;;;;;;6.55;1.40;;;;;;;27.56;100.00;96787.88;5508754;26;20379;-79
2024/04/08 10:31:07;;;;;;;7.93;2.20;;;;;;;27.70;97.83;96795.38;5511013;26;20375;-77
2024/04/08 10:33:33;;;;;;;6.22;1.58;;;;;;;28.02;100.00;96792.88;5506010;26;20879;-78
2024/04/08 10:36:02;;;;;;;5.47;1.30;;;;;;;28.34;100.00;96787.66;5503353;26;20366;-77
2024/04/08 10:38:28;;;;;;;7.65;1.45;;;;;;;28.96;100.00;96769.22;5511823;25;20324;-78
2024/04/08 10:40:54;;;;;;;10.55;1.85;;;;;;;29.37;98.93;96768.94;5507002;26;20328;-77
2024/04/08 10:43:22;;;;;;;6.97;1.70;;;;;;;29.61;100.00;96770.91;5511122;26;20422;-78
2024/04/08 10:45:49;;;;;;;15.52;2.17;;;;;;;30.00;100.00;96763.47;5506313;25;20374;-77
2024/04/08 10:48:16;;;;;;;12.85;2.67;;;;;;;30.67;87.66;96759.78;5503259;25;20394;-77
2024/04/08 10:50:46;;;;;;;6.83;1.60;;;;;;;30.49;94.95;96761.00;5494974;26;20460;-77
2024/04/08 10:53:15;;;;;;;5.95;1.45;;;;;;;30.63;100.00;96750.06;5501813;26;20328;-77
2024/04/08 10:55:41;;;;;;;10.05;1.70;;;;;;;30.86;94.23;96753.06;5506252;26;20368;-77
2024/04/08 10:58:08;;;;;;;8.07;1.80;;;;;;;30.82;94.87;96749.56;5500164;26;20342;-81
2024/04/08 11:00:34;;;;;;;3.47;1.55;;;;;;;31.12;100.00;96757.25;5497297;26;20331;-82
2024/04/08 11:03:00;;;;;;;3.72;1.10;;;;;;;31.47;100.00;96742.53;5492281;26;20322;-81
2024/04/08 11:05:29;;;;;;;10.80;1.70;;;;;;;31.32;78.28;96741.84;5493525;26;20326;-82
2024/04/08 11:07:58;;;;;;;6.07;1.60;;;;;;;31.37;99.78;96746.09;5492346;26;20330;-77
2024/04/08 11:10:28;;;;;;;5.80;1.60;;;;;;;31.46;100.00;96740.97;5488661;26;20351;-77
2024/04/08 11:12:55;;;;;;;8.25;1.45;;;;;;;31.57;100.00;96736.19;5489285;26;20363;-79
2024/04/08 11:15:23;;;;;;;5.43;0.90;;;;;;;31.85;100.00;96740.66;5493339;26;20318;-82
2024/04/08 11:17:55;;;;;;;2.92;1.20;;;;;;;32.15;100.00;96740.75;5495505;26;21053;-81
2024/04/08 11:20:21;;;;;;;7.38;1.50;;;;;;;32.19;100.00;96735.22;5493862;26;20366;-81
2024/04/08 11:22:47;;;;;;;7.68;2.42;;;;;;;32.25;100.00;96744.56;5493734;26;20342;-84
2024/04/08 11:25:15;;;;;;;4.97;1.40;;;;;;;32.47;100.00;96748.63;5493797;26;20861;-83
2024/04/08 11:27:45;;;;;;;8.02;1.42;;;;;;;32.57;100.00;96744.16;5493067;26;20435;-84